createdAt,value
2019-02-12T00:02:25.647Z,58.72
2019-02-12T00:04:55.740Z,58.03
2019-02-12T00:07:30.789Z,58.42
2019-02-12T00:10:04.848Z,60.80
2019-02-12T00:12:35.997Z,62.68
2019-02-12T00:15:06.457Z,63.38
2019-02-12T00:17:38.617Z,63.70
2019-02-12T00:20:10.003Z,64.19
2019-02-12T00:22:41.989Z,63.88
2019-02-12T00:25:11.535Z,64.19
2019-02-12T00:27:43.595Z,63.48
2019-02-12T00:30:15.018Z,62.78
2019-02-12T00:32:44.975Z,62.83
2019-02-12T00:35:16.577Z,63.54
2019-02-12T00:37:47.357Z,63.01
2019-02-12T00:40:19.456Z,63.31
2019-02-12T00:42:51.272Z,63.81
2019-02-12T00:45:21.009Z,63.02
2019-02-12T00:47:51.625Z,63.31
2019-02-12T00:50:21.753Z,63.17
2019-02-12T00:52:52.130Z,63.04
2019-02-12T00:55:22.339Z,62.37
2019-02-12T00:57:54.889Z,62.83
2019-02-12T01:00:24.126Z,62.41
2019-02-12T01:02:54.690Z,62.92
2019-02-12T01:05:24.872Z,63.10
2019-02-12T01:07:55.975Z,63.10
2019-02-12T01:10:26.638Z,61.38
2019-02-12T01:13:02.323Z,62.06
2019-02-12T01:15:35.530Z,62.18
2019-02-12T01:18:05.676Z,62.35
2019-02-12T01:20:35.466Z,62.36
2019-02-12T01:23:08.967Z,62.23
2019-02-12T01:25:41.747Z,61.52
2019-02-12T01:28:12.378Z,62.44
2019-02-12T01:30:42.729Z,62.18
2019-02-12T01:33:14.497Z,62.99
2019-02-12T01:35:46.141Z,63.13
2019-02-12T01:38:16.303Z,63.31
2019-02-12T01:40:46.239Z,63.32
2019-02-12T01:43:20.534Z,64.15
2019-02-12T01:45:50.301Z,63.72
2019-02-12T01:48:19.625Z,63.54
2019-02-12T01:50:52.676Z,63.74
2019-02-12T01:53:26.355Z,63.70
2019-02-12T01:56:00.553Z,63.86
2019-02-12T01:58:32.351Z,64.18
2019-02-12T02:01:04.215Z,63.69
2019-02-12T02:03:39.307Z,62.88
2019-02-12T02:06:09.495Z,63.00
2019-02-12T02:08:40.242Z,64.09
2019-02-12T02:11:11.051Z,64.81
2019-02-12T02:13:42.345Z,65.01
2019-02-12T02:16:12.898Z,65.13
2019-02-12T02:18:44.684Z,65.35
2019-02-12T02:21:15.725Z,65.56
2019-02-12T02:23:45.465Z,65.59
2019-02-12T02:26:15.761Z,65.39
2019-02-12T02:28:47.755Z,65.32
2019-02-12T02:31:18.377Z,65.74
2019-02-12T02:33:48.347Z,66.08
2019-02-12T02:36:19.248Z,65.81
2019-02-12T02:38:50.331Z,66.23
2019-02-12T02:41:22.061Z,66.29
2019-02-12T02:43:57.374Z,66.70
2019-02-12T02:46:31.856Z,66.68
2019-02-12T02:49:04.031Z,66.80
2019-02-12T02:51:37.561Z,67.25
2019-02-12T02:54:08.045Z,67.38
2019-02-12T02:56:41.750Z,67.53
2019-02-12T02:59:14.109Z,67.94
2019-02-12T03:01:44.421Z,67.52
2019-02-12T03:04:13.886Z,67.78
2019-02-12T03:06:46.245Z,68.09
2019-02-12T03:09:21.123Z,68.66
2019-02-12T03:11:51.133Z,68.86
2019-02-12T03:14:21.964Z,69.31
2019-02-12T03:16:51.918Z,69.35
2019-02-12T03:19:22.420Z,69.56
2019-02-12T03:21:52.262Z,70.02
2019-02-12T03:24:23.177Z,70.26
2019-02-12T03:26:52.769Z,70.13
2019-02-12T03:29:23.254Z,69.94
2019-02-12T03:31:53.265Z,70.39
2019-02-12T03:34:25.843Z,70.61
2019-02-12T03:36:55.437Z,70.77
2019-02-12T03:39:25.724Z,70.86
2019-02-12T03:41:55.104Z,71.25
2019-02-12T03:44:24.943Z,70.83
2019-02-12T03:46:55.937Z,71.03
2019-02-12T03:49:26.408Z,71.27
2019-02-12T03:51:56.728Z,71.29
2019-02-12T03:54:27.695Z,71.57
2019-02-12T03:56:57.134Z,71.81
2019-02-12T03:59:27.710Z,71.64
2019-02-12T04:01:58.951Z,71.89
2019-02-12T04:04:28.925Z,71.84
2019-02-12T04:07:02.783Z,72.19
2019-02-12T04:09:34.149Z,72.64
2019-02-12T04:12:04.623Z,72.72
2019-02-12T04:14:39.279Z,73.97
2019-02-12T04:17:08.667Z,75.39
2019-02-12T04:19:38.598Z,76.08
2019-02-12T04:22:22.347Z,75.90
2019-02-12T04:24:49.905Z,75.79
2019-02-12T04:27:24.134Z,76.12
2019-02-12T04:29:53.321Z,75.79
2019-02-12T04:32:24.496Z,75.88
2019-02-12T04:34:54.702Z,76.00
2019-02-12T04:37:29.472Z,76.33
2019-02-12T04:39:59.931Z,76.10
2019-02-12T04:42:29.488Z,76.52
2019-02-12T04:45:03.946Z,76.54
2019-02-12T04:47:53.219Z,76.69
2019-02-12T04:50:22.883Z,76.81
2019-02-12T04:52:53.364Z,76.67
2019-02-12T04:55:32.994Z,77.30
2019-02-12T04:58:05.973Z,77.62
2019-02-12T05:00:37.125Z,77.29
2019-02-12T05:03:09.871Z,77.03
2019-02-12T05:05:39.534Z,76.58
2019-02-12T05:08:10.254Z,76.18
2019-02-12T05:10:44.156Z,75.82
2019-02-12T05:13:13.368Z,76.33
2019-02-12T05:15:43.144Z,76.06
2019-02-12T05:18:12.567Z,77.13
2019-02-12T05:20:46.002Z,78.15
2019-02-12T05:23:16.166Z,79.29
2019-02-12T05:25:45.671Z,79.34
2019-02-12T05:28:54.436Z,79.55
2019-02-12T05:31:24.129Z,79.89
2019-02-12T05:33:54.843Z,79.50
2019-02-12T05:36:25.048Z,79.55
2019-02-12T05:38:55.757Z,79.87
2019-02-12T05:41:26.360Z,80.32
2019-02-12T05:43:55.715Z,80.45
2019-02-12T05:46:25.062Z,80.49
2019-02-12T05:48:54.933Z,80.37
2019-02-12T05:51:27.122Z,81.46
2019-02-12T05:53:56.812Z,82.42
2019-02-12T05:56:28.269Z,82.43
2019-02-12T05:58:58.257Z,82.33
2019-02-12T06:01:27.713Z,82.64
2019-02-12T06:03:56.799Z,82.54
2019-02-12T06:06:26.188Z,83.18
2019-02-12T06:08:56.712Z,82.27
2019-02-12T06:11:27.532Z,82.14
2019-02-12T06:13:58.728Z,81.78
2019-02-12T06:16:35.360Z,82.24
2019-02-12T06:19:06.424Z,81.44
2019-02-12T06:21:35.675Z,82.01
2019-02-12T06:24:04.978Z,81.57
2019-02-12T06:26:34.644Z,81.67
2019-02-12T06:29:05.608Z,82.34
2019-02-12T06:31:35.628Z,82.67
2019-02-12T06:34:04.991Z,82.30
2019-02-12T06:36:33.817Z,82.54
2019-02-12T06:39:02.709Z,82.58
2019-02-12T06:41:33.179Z,82.47
2019-02-12T06:44:02.347Z,82.28
2019-02-12T06:46:31.656Z,82.80
2019-02-12T06:49:00.555Z,82.75
2019-02-12T06:51:29.346Z,82.47
2019-02-12T06:53:58.693Z,82.41
2019-02-12T06:56:29.187Z,82.75
2019-02-12T06:58:58.158Z,82.63
2019-02-12T07:01:26.999Z,82.14
2019-02-12T07:04:30.447Z,81.56
2019-02-12T07:07:56.450Z,81.53
2019-02-12T07:10:36.190Z,81.83
2019-02-12T07:13:41.825Z,81.90
2019-02-12T07:16:42.210Z,81.44
2019-02-12T07:20:00.234Z,81.86
2019-02-12T07:23:10.624Z,81.87
2019-02-12T07:32:04.658Z,81.85
2019-02-12T07:35:08.296Z,81.48
2019-02-12T07:38:02.422Z,81.17
2019-02-12T07:40:50.012Z,80.84
2019-02-12T07:44:05.704Z,80.47
2019-02-12T07:46:58.120Z,80.61
2019-02-12T07:49:47.376Z,80.07
2019-02-12T07:52:58.583Z,79.89
2019-02-12T07:56:09.036Z,79.64
2019-02-12T07:59:24.730Z,79.28
2019-02-12T08:02:33.779Z,79.72
2019-02-12T08:05:55.814Z,79.63
2019-02-12T08:09:33.519Z,79.06
2019-02-12T08:12:40.792Z,78.88
2019-02-12T08:15:27.665Z,79.25
2019-02-12T08:18:14.318Z,78.09
2019-02-12T08:21:28.576Z,78.99
2019-02-12T08:24:24.568Z,79.43
2019-02-12T08:27:19.404Z,79.22
2019-02-12T08:30:15.073Z,79.28
2019-02-12T08:33:40.104Z,79.28
2019-02-12T08:36:17.575Z,78.97
2019-02-12T08:39:30.190Z,79.07
2019-02-12T08:42:23.667Z,78.78
2019-02-12T08:45:46.162Z,78.65
2019-02-12T08:48:46.024Z,77.89
2019-02-12T08:51:53.432Z,77.26
2019-02-12T08:54:59.005Z,77.73
2019-02-12T08:58:00.456Z,77.90
2019-02-12T09:00:53.737Z,77.96
2019-02-12T09:03:54.129Z,77.52
2019-02-12T09:06:49.026Z,77.08
2019-02-12T09:09:59.402Z,77.54
2019-02-12T09:12:56.665Z,77.36
2019-02-12T09:16:22.268Z,77.13
2019-02-12T09:19:15.180Z,76.77
2019-02-12T09:22:29.867Z,76.21
2019-02-12T09:25:17.818Z,76.95
2019-02-12T09:28:32.950Z,76.14
2019-02-12T09:31:28.970Z,76.08
2019-02-12T09:34:35.216Z,76.04
2019-02-12T09:37:51.332Z,75.67
2019-02-12T09:40:56.347Z,74.87
2019-02-12T09:43:39.834Z,74.88
2019-02-12T09:46:34.596Z,75.12
2019-02-12T09:49:38.827Z,74.37
2019-02-12T09:52:40.490Z,75.04
2019-02-12T09:55:24.629Z,74.95
2019-02-12T09:58:25.197Z,74.76
2019-02-12T10:01:11.154Z,75.55
2019-02-12T10:04:06.955Z,74.71
2019-02-12T10:07:29.408Z,75.03
2019-02-12T10:10:30.619Z,75.01
2019-02-12T10:13:09.161Z,74.90
2019-02-12T10:15:56.396Z,75.51
2019-02-12T10:19:04.592Z,75.35
2019-02-12T10:22:30.323Z,75.68
2019-02-12T10:25:11.476Z,75.24
2019-02-12T10:28:20.546Z,74.67
2019-02-12T10:31:34.064Z,75.38
2019-02-12T10:34:02.877Z,74.29
2019-02-12T10:36:38.593Z,74.72
2019-02-12T10:39:09.035Z,73.30
2019-02-12T10:41:37.802Z,73.57
2019-02-12T10:44:06.614Z,72.05
2019-02-12T10:46:36.102Z,72.45
2019-02-12T10:49:12.757Z,72.99
2019-02-12T10:51:43.447Z,72.92
2019-02-12T10:54:13.559Z,71.49
2019-02-12T10:56:42.450Z,72.14
2019-02-12T10:59:11.125Z,70.17
2019-02-12T11:01:53.181Z,69.85
2019-02-12T11:04:22.126Z,69.95
2019-02-12T11:06:50.791Z,69.75
2019-02-12T11:09:19.697Z,69.14
2019-02-12T11:11:48.405Z,69.28
2019-02-12T11:14:17.293Z,67.00
2019-02-12T11:16:45.956Z,68.50
2019-02-12T11:19:16.499Z,68.67
2019-02-12T11:21:45.253Z,68.40
2019-02-12T11:24:13.993Z,67.34
2019-02-12T11:26:43.384Z,68.15
2019-02-12T11:29:13.635Z,67.75
2019-02-12T11:31:58.342Z,68.13
2019-02-12T11:34:28.231Z,67.78
2019-02-12T11:36:57.532Z,69.03
2019-02-12T11:39:27.136Z,69.12
2019-02-12T11:42:06.779Z,67.74
2019-02-12T11:44:36.512Z,67.49
2019-02-12T11:47:05.214Z,67.97
2019-02-12T11:49:33.918Z,67.58
2019-02-12T11:52:02.719Z,67.77
2019-02-12T11:54:32.852Z,67.89
2019-02-12T11:57:01.662Z,67.08
2019-02-12T11:59:30.442Z,66.89
2019-02-12T12:01:59.173Z,67.36
2019-02-12T12:04:27.970Z,67.62
2019-02-12T12:06:56.832Z,66.19
2019-02-12T12:09:25.588Z,65.75
2019-02-12T12:11:54.396Z,66.54
2019-02-12T12:14:24.252Z,66.12
2019-02-12T12:16:53.065Z,66.47
2019-02-12T12:19:23.078Z,66.27
2019-02-12T12:21:52.499Z,65.19
2019-02-12T12:24:21.672Z,66.60
2019-02-12T12:26:50.401Z,67.66
2019-02-12T12:29:19.169Z,67.13
2019-02-12T12:31:47.931Z,67.43
2019-02-12T12:34:19.935Z,67.08
2019-02-12T12:36:48.790Z,66.68
2019-02-12T12:39:17.611Z,67.04
2019-02-12T12:41:46.387Z,66.84
2019-02-12T12:44:17.641Z,67.19
2019-02-12T12:46:47.153Z,66.96
2019-02-12T12:49:16.364Z,66.98
2019-02-12T12:51:45.161Z,67.45
2019-02-12T12:54:14.031Z,67.18
2019-02-12T12:56:43.540Z,66.44
2019-02-12T12:59:12.311Z,67.16
2019-02-12T13:01:41.112Z,66.86
2019-02-12T13:04:11.546Z,66.68
2019-02-12T13:06:40.928Z,67.49
2019-02-12T13:09:09.889Z,66.69
2019-02-12T13:11:38.731Z,66.85
2019-02-12T13:14:07.454Z,65.44
2019-02-12T13:16:36.248Z,64.84
2019-02-12T13:19:04.911Z,63.78
2019-02-12T13:21:34.620Z,62.93
2019-02-12T13:24:03.860Z,63.59
2019-02-12T13:26:33.027Z,63.26
2019-02-12T13:29:02.138Z,62.45
2019-02-12T13:31:33.249Z,64.86
2019-02-12T13:34:03.474Z,65.08
2019-02-12T13:36:32.272Z,64.95
2019-02-12T13:39:01.097Z,63.69
2019-02-12T13:41:32.040Z,64.41
2019-02-12T13:44:00.954Z,62.59
2019-02-12T13:46:29.790Z,63.89
2019-02-12T13:49:01.738Z,63.72
2019-02-12T13:51:31.311Z,62.98
2019-02-12T13:54:00.235Z,63.17
2019-02-12T13:56:32.313Z,62.82
2019-02-12T13:59:01.100Z,62.91
2019-02-12T14:01:30.244Z,62.15
2019-02-12T14:03:59.336Z,63.23
2019-02-12T14:06:28.034Z,63.67
2019-02-12T14:08:59.412Z,64.21
2019-02-12T14:11:28.178Z,63.92
2019-02-12T14:14:04.467Z,64.44
2019-02-12T14:16:34.827Z,64.88
2019-02-12T14:19:03.696Z,64.89
2019-02-12T14:21:34.208Z,65.77
2019-02-12T14:24:06.916Z,65.53
2019-02-12T14:26:56.154Z,66.78
2019-02-12T14:29:24.805Z,66.62
2019-02-12T14:31:53.505Z,66.83
2019-02-12T14:34:22.309Z,66.87
2019-02-12T14:36:51.015Z,67.04
2019-02-12T14:39:19.768Z,67.09
2019-02-12T14:41:48.646Z,67.57
2019-02-12T14:44:19.346Z,66.88
2019-02-12T14:46:48.114Z,66.75
2019-02-12T14:49:17.246Z,66.84
2019-02-12T14:51:48.214Z,67.12
2019-02-12T14:54:16.845Z,66.81
2019-02-12T14:56:45.617Z,66.93
2019-02-12T14:59:14.315Z,67.09
2019-02-12T15:01:42.974Z,67.76
2019-02-12T15:04:11.699Z,66.92
2019-02-12T15:06:40.693Z,67.84
2019-02-12T15:09:09.359Z,68.16
2019-02-12T15:11:38.122Z,67.47
2019-02-12T15:14:15.161Z,66.66
2019-02-12T15:16:45.183Z,66.47
2019-02-12T15:19:13.932Z,66.97
2019-02-12T15:21:42.746Z,66.96
2019-02-12T15:24:11.292Z,67.26
2019-02-12T15:26:39.968Z,67.52
2019-02-12T15:29:08.649Z,67.32
2019-02-12T15:31:37.265Z,67.71
2019-02-12T15:34:06.062Z,68.11
2019-02-12T15:36:35.315Z,68.57
2019-02-12T15:39:05.585Z,68.32
2019-02-12T15:41:34.300Z,68.62
2019-02-12T15:44:03.413Z,69.02
2019-02-12T15:46:34.489Z,68.99
2019-02-12T15:49:03.187Z,69.42
2019-02-12T15:51:31.916Z,69.69
2019-02-12T15:54:00.627Z,69.79
2019-02-12T15:56:29.517Z,69.94
2019-02-12T15:58:58.415Z,70.31
2019-02-12T16:01:28.260Z,70.55
2019-02-12T16:03:58.321Z,70.74
2019-02-12T16:06:28.300Z,70.94
2019-02-12T16:08:58.953Z,71.09
2019-02-12T16:11:33.155Z,71.34
2019-02-12T16:14:04.103Z,71.56
2019-02-12T16:16:33.724Z,72.10
2019-02-12T16:19:06.229Z,72.27
2019-02-12T16:21:35.190Z,72.70
2019-02-12T16:24:04.580Z,72.75
2019-02-12T16:26:35.113Z,73.10
2019-02-12T16:29:43.244Z,73.43
2019-02-12T16:32:11.974Z,73.58
2019-02-12T16:34:40.861Z,73.70
2019-02-12T16:37:17.911Z,73.66
2019-02-12T16:39:49.915Z,73.92
2019-02-12T16:42:20.505Z,74.15
2019-02-12T16:44:53.111Z,74.80
2019-02-12T16:47:23.463Z,74.83
2019-02-12T16:49:52.019Z,74.72
2019-02-12T16:52:21.286Z,75.05
2019-02-12T16:54:50.234Z,75.05
2019-02-12T16:57:21.019Z,75.18
2019-02-12T16:59:53.330Z,74.95
2019-02-12T17:02:23.028Z,75.10
2019-02-12T17:04:51.948Z,75.22
2019-02-12T17:07:21.094Z,75.47
2019-02-12T17:09:52.303Z,75.53
2019-02-12T17:12:20.285Z,75.54
2019-02-12T17:14:49.145Z,75.92
2019-02-12T17:17:19.971Z,76.08
2019-02-12T17:19:50.570Z,76.36
2019-02-12T17:22:19.298Z,76.41
2019-02-12T17:24:48.068Z,76.60
2019-02-12T17:27:18.291Z,76.78
2019-02-12T17:29:47.212Z,77.02
2019-02-12T17:32:15.760Z,76.97
2019-02-12T17:34:46.340Z,77.00
2019-02-12T17:37:14.907Z,76.90
2019-02-12T17:39:45.134Z,76.60
2019-02-12T17:42:14.127Z,76.14
2019-02-12T17:44:43.079Z,76.19
2019-02-12T17:47:11.638Z,76.32
2019-02-12T17:49:40.173Z,76.62
2019-02-12T17:52:20.698Z,76.58
2019-02-12T17:54:49.630Z,76.67
2019-02-12T17:57:19.888Z,76.72
2019-02-12T17:59:48.474Z,76.64
2019-02-12T18:02:17.448Z,76.74
2019-02-12T18:04:46.402Z,76.85
2019-02-12T18:07:15.310Z,76.78
2019-02-12T18:09:44.194Z,76.84
2019-02-12T18:12:13.302Z,77.01
2019-02-12T18:14:42.263Z,76.94
2019-02-12T18:17:11.500Z,77.07
2019-02-12T18:19:44.751Z,77.01
2019-02-12T18:22:14.965Z,76.80
2019-02-12T18:24:45.038Z,76.74
2019-02-12T18:27:15.225Z,76.71
2019-02-12T18:29:47.240Z,76.21
2019-02-12T18:32:17.179Z,76.16
2019-02-12T18:34:45.729Z,75.97
2019-02-12T18:37:14.697Z,75.68
2019-02-12T18:39:45.299Z,75.34
2019-02-12T18:42:16.995Z,75.09
2019-02-12T18:44:46.405Z,74.88
2019-02-12T18:47:14.999Z,74.84
2019-02-12T18:49:43.859Z,74.50
2019-02-12T18:52:15.864Z,74.36
2019-02-12T18:54:44.582Z,74.34
2019-02-12T18:57:13.227Z,74.40
2019-02-12T18:59:44.086Z,74.51
2019-02-12T19:02:13.038Z,74.42
2019-02-12T19:04:41.745Z,74.14
2019-02-12T19:07:10.348Z,74.23
2019-02-12T19:09:40.320Z,74.08
2019-02-12T19:12:11.909Z,73.96
2019-02-12T19:14:40.845Z,74.06
2019-02-12T19:17:12.638Z,74.19
2019-02-12T19:19:44.756Z,74.36
2019-02-12T19:22:13.370Z,74.38
2019-02-12T19:24:41.910Z,74.17
2019-02-12T19:27:12.353Z,74.12
2019-02-12T19:29:44.648Z,74.55
2019-02-12T19:32:13.608Z,74.42
2019-02-12T19:34:43.715Z,74.64
2019-02-12T19:37:13.003Z,74.42
2019-02-12T19:39:43.244Z,74.42
2019-02-12T19:42:12.199Z,74.66
2019-02-12T19:44:40.765Z,74.83
2019-02-12T19:47:09.296Z,74.92
2019-02-12T19:49:38.047Z,75.12
2019-02-12T19:52:06.635Z,74.94
2019-02-12T19:54:35.178Z,75.49
2019-02-12T19:57:05.094Z,76.03
2019-02-12T19:59:33.641Z,76.02
2019-02-12T20:02:02.197Z,76.47
2019-02-12T20:04:30.722Z,76.85
2019-02-12T20:06:59.860Z,76.59
2019-02-12T20:09:28.787Z,76.62
2019-02-12T20:11:57.327Z,76.81
2019-02-12T20:14:27.988Z,76.82
2019-02-12T20:16:59.404Z,76.85
2019-02-12T20:19:30.369Z,77.20
2019-02-12T20:25:02.460Z,76.92
2019-02-12T20:27:36.302Z,76.83
2019-02-12T20:30:06.363Z,76.38
2019-02-12T20:32:34.908Z,76.48
2019-02-12T20:35:03.882Z,76.59
2019-02-12T20:37:34.373Z,76.76
2019-02-12T20:40:04.999Z,77.00
2019-02-12T20:42:33.538Z,77.06
2019-02-12T20:45:09.620Z,77.02
2019-02-12T20:47:39.787Z,77.14
2019-02-12T20:50:09.874Z,77.17
2019-02-12T20:52:38.416Z,77.50
2019-02-12T20:55:07.753Z,77.67
2019-02-12T20:57:38.347Z,77.75
2019-02-12T21:00:09.644Z,77.79
2019-02-12T21:02:40.313Z,77.56
2019-02-12T21:05:10.379Z,77.55
2019-02-12T21:07:40.483Z,77.37
2019-02-12T21:10:12.576Z,77.66
2019-02-12T21:12:41.151Z,77.74
2019-02-12T21:15:13.760Z,78.08
2019-02-12T21:17:42.385Z,78.17
2019-02-12T21:20:11.391Z,78.09
2019-02-12T21:22:40.202Z,77.91
2019-02-12T21:25:15.384Z,78.13
2019-02-12T21:27:44.018Z,78.32
2019-02-12T21:30:14.872Z,78.28
2019-02-12T21:32:43.417Z,78.63
2019-02-12T21:35:12.215Z,78.85
2019-02-12T21:37:41.230Z,79.12
2019-02-12T21:40:12.997Z,79.42
2019-02-12T21:42:41.588Z,79.80
2019-02-12T21:45:10.412Z,79.45
2019-02-12T21:47:39.137Z,79.25
2019-02-12T21:50:11.194Z,79.23
2019-02-12T21:52:39.826Z,79.01
2019-02-12T21:55:09.441Z,79.17
2019-02-12T21:57:40.264Z,79.29
2019-02-12T22:00:11.220Z,79.52
2019-02-12T22:02:44.533Z,79.64
2019-02-12T22:05:15.614Z,79.39
2019-02-12T22:07:44.260Z,79.33
2019-02-12T22:10:15.513Z,79.60
2019-02-12T22:12:44.217Z,79.51
2019-02-12T22:15:13.426Z,79.25
2019-02-12T22:17:42.234Z,79.33
2019-02-12T22:20:12.994Z,79.30
2019-02-12T22:22:43.954Z,78.97
2019-02-12T22:25:15.666Z,78.78
2019-02-12T22:27:44.385Z,78.64
2019-02-12T22:30:18.084Z,78.15
2019-02-12T22:32:48.307Z,77.84
2019-02-12T22:35:16.893Z,78.04
2019-02-12T22:37:49.094Z,77.95
2019-02-12T22:40:17.651Z,78.11
2019-02-12T22:42:48.047Z,78.43
2019-02-12T22:45:20.145Z,78.28
2019-02-12T22:47:50.690Z,78.07
2019-02-12T22:50:19.578Z,78.11
2019-02-12T22:52:48.287Z,78.13
2019-02-12T22:55:20.509Z,78.47
2019-02-12T22:57:50.639Z,78.46
2019-02-12T23:00:28.715Z,78.07
2019-02-12T23:02:57.295Z,77.71
2019-02-12T23:05:25.892Z,77.91
2019-02-12T23:07:54.654Z,77.80
2019-02-12T23:10:23.178Z,77.88
2019-02-12T23:12:52.089Z,77.63
2019-02-12T23:15:24.920Z,77.52
2019-02-12T23:17:55.826Z,77.00
2019-02-12T23:20:28.145Z,77.10
2019-02-12T23:22:56.728Z,76.64
2019-02-12T23:25:25.643Z,76.38
2019-02-12T23:27:57.719Z,75.96
2019-02-12T23:30:26.373Z,75.99
2019-02-12T23:32:54.901Z,75.82
2019-02-12T23:35:26.992Z,75.72
2019-02-12T23:37:55.549Z,75.61
2019-02-12T23:40:24.104Z,75.68
2019-02-12T23:42:54.600Z,75.54
2019-02-12T23:45:25.172Z,75.13
2019-02-12T23:47:54.091Z,75.28
2019-02-12T23:50:22.619Z,75.41
2019-02-12T23:52:52.527Z,75.32
2019-02-12T23:55:23.021Z,75.14
2019-02-12T23:57:51.911Z,74.81
